createdAt,value
2024-05-09T00:00:59.024Z,62.39
2024-05-09T00:01:59.031Z,62.29
2024-05-09T00:02:59.087Z,62.29
2024-05-09T00:03:59.055Z,62.29
2024-05-09T00:04:59.069Z,62.29
2024-05-09T00:05:59.075Z,62.29
2024-05-09T00:06:58.942Z,62.41
2024-05-09T00:07:59.014Z,62.41
2024-05-09T00:08:58.920Z,62.39
2024-05-09T00:09:58.899Z,62.41
2024-05-09T00:10:58.977Z,62.32
2024-05-09T00:11:59.050Z,62.18
2024-05-09T00:12:58.869Z,62.29
2024-05-09T00:13:58.916Z,62.32
2024-05-09T00:14:58.845Z,62.21
2024-05-09T00:15:58.837Z,62.32
2024-05-09T00:16:58.851Z,62.32
2024-05-09T00:17:59.031Z,62.32
2024-05-09T00:18:58.943Z,62.41
2024-05-09T00:19:58.811Z,62.52
2024-05-09T00:20:58.824Z,62.62
2024-05-09T00:21:58.771Z,62.52
2024-05-09T00:22:58.861Z,62.52
2024-05-09T00:23:58.747Z,62.52
2024-05-09T00:24:58.754Z,62.52
2024-05-09T00:25:58.804Z,62.41
2024-05-09T00:26:58.731Z,62.72
2024-05-09T00:27:58.704Z,62.62
2024-05-09T00:28:58.715Z,62.72
2024-05-09T00:29:58.706Z,62.72
2024-05-09T00:30:58.672Z,62.85
2024-05-09T00:31:58.733Z,62.85
2024-05-09T00:32:58.826Z,63.06
2024-05-09T00:33:58.718Z,62.96
2024-05-09T00:34:58.652Z,63.06
2024-05-09T00:35:58.644Z,62.96
2024-05-09T00:36:58.606Z,63.16
2024-05-09T00:37:58.646Z,63.16
2024-05-09T00:38:58.581Z,63.36
2024-05-09T00:39:58.586Z,63.36
2024-05-09T00:40:58.604Z,63.36
2024-05-09T00:41:58.561Z,63.46
2024-05-09T00:42:58.542Z,63.46
2024-05-09T00:43:58.571Z,63.57
2024-05-09T00:44:58.534Z,63.57
2024-05-09T00:45:58.512Z,63.57
2024-05-09T00:46:58.556Z,63.67
2024-05-09T00:47:58.694Z,63.77
2024-05-09T00:48:58.575Z,63.97
2024-05-09T00:49:58.514Z,64.00
2024-05-09T00:50:58.492Z,64.11
2024-05-09T00:51:58.471Z,64.20
2024-05-09T00:52:58.464Z,64.31
2024-05-09T00:53:58.421Z,64.41
2024-05-09T00:54:58.410Z,64.41
2024-05-09T00:55:58.443Z,64.51
2024-05-09T00:56:58.413Z,64.51
2024-05-09T00:57:58.368Z,64.51
2024-05-09T00:58:58.478Z,64.61
2024-05-09T00:59:58.363Z,64.64
2024-05-09T01:00:58.367Z,64.64
2024-05-09T01:01:58.377Z,64.75
2024-05-09T01:02:58.514Z,64.95
2024-05-09T01:03:58.413Z,64.84
2024-05-09T01:04:58.432Z,64.84
2024-05-09T01:05:59.274Z,65.16
2024-05-09T01:06:58.290Z,65.16
2024-05-09T01:07:58.293Z,65.16
2024-05-09T01:08:58.263Z,65.16
2024-05-09T01:09:58.247Z,65.25
2024-05-09T01:10:58.326Z,65.25
2024-05-09T01:11:58.345Z,65.36
2024-05-09T01:12:58.204Z,65.46
2024-05-09T01:13:58.286Z,65.59
2024-05-09T01:14:58.217Z,65.59
2024-05-09T01:15:58.190Z,65.69
2024-05-09T01:16:58.178Z,65.89
2024-05-09T01:17:58.479Z,65.80
2024-05-09T01:18:58.196Z,65.80
2024-05-09T01:19:58.182Z,66.00
2024-05-09T01:20:58.190Z,66.00
2024-05-09T01:21:58.113Z,66.10
2024-05-09T01:22:58.185Z,66.20
2024-05-09T01:23:58.130Z,66.10
2024-05-09T01:24:58.078Z,66.20
2024-05-09T01:25:58.094Z,66.20
2024-05-09T01:26:58.048Z,66.10
2024-05-09T01:27:58.048Z,66.00
2024-05-09T01:28:58.066Z,66.10
2024-05-09T01:29:58.041Z,66.20
2024-05-09T01:30:58.032Z,66.30
2024-05-09T01:31:58.123Z,66.41
2024-05-09T01:32:58.130Z,66.50
2024-05-09T01:33:58.128Z,66.41
2024-05-09T01:34:58.031Z,66.54
2024-05-09T01:35:57.953Z,66.54
2024-05-09T01:36:57.950Z,66.54
2024-05-09T01:37:57.977Z,66.54
2024-05-09T01:38:57.917Z,66.74
2024-05-09T01:39:57.947Z,66.64
2024-05-09T01:40:58.056Z,66.54
2024-05-09T01:41:57.892Z,66.54
2024-05-09T01:42:57.878Z,66.74
2024-05-09T01:43:57.908Z,66.74
2024-05-09T01:44:57.852Z,66.74
2024-05-09T01:45:57.865Z,66.64
2024-05-09T01:46:57.868Z,66.64
2024-05-09T01:47:58.131Z,66.85
2024-05-09T01:48:58.845Z,67.05
2024-05-09T01:49:57.878Z,67.05
2024-05-09T01:50:57.915Z,67.05
2024-05-09T01:51:57.802Z,67.15
2024-05-09T01:52:57.808Z,67.05
2024-05-09T01:53:57.759Z,67.15
2024-05-09T01:54:57.752Z,67.29
2024-05-09T01:55:57.766Z,67.29
2024-05-09T01:56:57.723Z,67.38
2024-05-09T01:57:57.714Z,67.38
2024-05-09T01:58:57.788Z,67.38
2024-05-09T01:59:57.692Z,67.49
2024-05-09T02:00:57.721Z,67.49
2024-05-09T02:01:58.102Z,67.49
2024-05-09T02:02:57.898Z,67.38
2024-05-09T02:03:57.804Z,67.49
2024-05-09T02:04:57.827Z,67.38
2024-05-09T02:05:57.713Z,67.49
2024-05-09T02:06:57.615Z,67.49
2024-05-09T02:07:57.622Z,67.59
2024-05-09T02:08:58.277Z,67.49
2024-05-09T02:09:57.579Z,67.49
2024-05-09T02:10:57.693Z,67.49
2024-05-09T02:11:57.652Z,67.69
2024-05-09T02:12:57.544Z,67.69
2024-05-09T02:13:57.659Z,67.59
2024-05-09T02:14:57.519Z,67.59
2024-05-09T02:15:57.523Z,67.72
2024-05-09T02:16:57.533Z,67.82
2024-05-09T02:17:57.697Z,67.82
2024-05-09T02:18:58.426Z,67.93
2024-05-09T02:19:57.627Z,67.93
2024-05-09T02:20:57.513Z,67.93
2024-05-09T02:21:58.265Z,68.03
2024-05-09T02:22:57.547Z,68.03
2024-05-09T02:23:57.421Z,68.23
2024-05-09T02:24:57.429Z,68.13
2024-05-09T02:25:57.462Z,68.23
2024-05-09T02:26:57.388Z,68.33
2024-05-09T02:27:57.400Z,68.33
2024-05-09T02:28:57.414Z,68.33
2024-05-09T02:29:57.377Z,68.44
2024-05-09T02:30:57.360Z,68.26
2024-05-09T02:31:57.400Z,68.57
2024-05-09T02:32:58.606Z,68.57
2024-05-09T02:33:57.412Z,68.67
2024-05-09T02:34:57.345Z,68.88
2024-05-09T02:35:57.319Z,68.88
2024-05-09T02:36:57.283Z,68.88
2024-05-09T02:37:57.320Z,68.88
2024-05-09T02:38:57.259Z,69.08
2024-05-09T02:39:57.247Z,69.38
2024-05-09T02:40:58.261Z,69.52
2024-05-09T02:41:57.232Z,69.52
2024-05-09T02:42:57.219Z,69.42
2024-05-09T02:43:57.284Z,69.52
2024-05-09T02:44:57.191Z,69.73
2024-05-09T02:45:57.190Z,69.73
2024-05-09T02:46:57.220Z,69.82
2024-05-09T02:47:57.425Z,69.93
2024-05-09T02:48:57.219Z,69.93
2024-05-09T02:49:57.210Z,70.03
2024-05-09T02:50:57.256Z,70.03
2024-05-09T02:51:57.122Z,69.93
2024-05-09T02:52:57.135Z,69.82
2024-05-09T02:53:57.093Z,69.93
2024-05-09T02:54:57.090Z,70.14
2024-05-09T02:55:57.158Z,70.14
2024-05-09T02:56:57.062Z,70.14
2024-05-09T02:57:57.060Z,70.23
2024-05-09T02:58:57.054Z,70.23
2024-05-09T02:59:57.056Z,70.37
2024-05-09T03:00:57.031Z,70.44
2024-05-09T03:01:57.104Z,70.57
2024-05-09T03:02:57.148Z,70.68
2024-05-09T03:03:57.134Z,70.88
2024-05-09T03:04:57.027Z,70.78
2024-05-09T03:05:56.966Z,70.78
2024-05-09T03:06:56.963Z,70.88
2024-05-09T03:07:57.002Z,70.88
2024-05-09T03:08:56.925Z,70.88
2024-05-09T03:09:57.492Z,70.98
2024-05-09T03:10:56.931Z,71.09
2024-05-09T03:11:57.054Z,71.09
2024-05-09T03:12:56.885Z,71.19
2024-05-09T03:13:56.915Z,71.19
2024-05-09T03:14:56.861Z,71.19
2024-05-09T03:15:56.855Z,71.19
2024-05-09T03:16:56.908Z,71.19
2024-05-09T03:17:57.065Z,71.39
2024-05-09T03:18:56.878Z,71.39
2024-05-09T03:19:56.799Z,71.29
2024-05-09T03:20:56.841Z,71.19
2024-05-09T03:21:56.786Z,71.29
2024-05-09T03:22:57.146Z,71.39
2024-05-09T03:23:56.774Z,71.50
2024-05-09T03:24:56.743Z,71.53
2024-05-09T03:25:56.767Z,71.53
2024-05-09T03:26:56.737Z,71.53
2024-05-09T03:27:56.819Z,71.63
2024-05-09T03:28:56.746Z,71.63
2024-05-09T03:29:56.754Z,71.73
2024-05-09T03:30:56.679Z,71.73
2024-05-09T03:31:56.810Z,71.83
2024-05-09T03:32:56.773Z,71.83
2024-05-09T03:33:56.838Z,71.83
2024-05-09T03:34:56.689Z,71.73
2024-05-09T03:35:56.633Z,71.73
2024-05-09T03:36:56.607Z,71.63
2024-05-09T03:37:56.647Z,71.83
2024-05-09T03:38:56.600Z,71.83
2024-05-09T03:39:56.583Z,71.94
2024-05-09T03:40:56.586Z,71.94
2024-05-09T03:41:56.558Z,72.04
2024-05-09T03:42:56.542Z,72.04
2024-05-09T03:43:56.609Z,72.04
2024-05-09T03:44:56.517Z,72.14
2024-05-09T03:45:56.512Z,72.24
2024-05-09T03:46:56.509Z,72.14
2024-05-09T03:47:56.870Z,72.14
2024-05-09T03:48:56.554Z,72.14
2024-05-09T03:49:56.538Z,72.24
2024-05-09T03:50:56.501Z,72.24
2024-05-09T03:51:56.451Z,72.34
2024-05-09T03:52:56.478Z,72.24
2024-05-09T03:53:56.426Z,72.24
2024-05-09T03:54:56.431Z,72.34
2024-05-09T03:55:56.439Z,72.24
2024-05-09T03:56:56.382Z,72.34
2024-05-09T03:57:56.397Z,72.38
2024-05-09T03:58:56.398Z,72.48
2024-05-09T03:59:56.355Z,72.79
2024-05-09T04:00:56.382Z,72.79
2024-05-09T04:01:56.573Z,72.79
2024-05-09T04:02:56.391Z,72.69
2024-05-09T04:03:56.373Z,72.58
2024-05-09T04:04:56.317Z,72.58
2024-05-09T04:05:56.325Z,72.58
2024-05-09T04:06:56.287Z,72.58
2024-05-09T04:07:56.353Z,72.58
2024-05-09T04:08:56.260Z,72.58
2024-05-09T04:09:56.244Z,72.58
2024-05-09T04:10:56.302Z,72.58
2024-05-09T04:11:56.341Z,72.58
2024-05-09T04:12:56.206Z,72.69
2024-05-09T04:13:56.233Z,72.69
2024-05-09T04:14:56.190Z,72.79
2024-05-09T04:15:56.212Z,72.69
2024-05-09T04:16:56.212Z,72.89
2024-05-09T04:17:56.650Z,72.89
2024-05-09T04:18:56.234Z,72.79
2024-05-09T04:19:56.164Z,72.89
2024-05-09T04:20:56.193Z,72.79
2024-05-09T04:21:56.130Z,72.89
2024-05-09T04:22:56.155Z,72.89
2024-05-09T04:23:56.091Z,72.89
2024-05-09T04:24:57.004Z,72.89
2024-05-09T04:25:56.127Z,72.99
2024-05-09T04:26:56.056Z,72.89
2024-05-09T04:27:56.056Z,72.99
2024-05-09T04:28:56.061Z,72.89
2024-05-09T04:29:56.019Z,72.79
2024-05-09T04:30:56.037Z,72.69
2024-05-09T04:31:56.143Z,72.69
2024-05-09T04:32:56.099Z,72.79
2024-05-09T04:33:56.137Z,72.75
2024-05-09T04:34:56.012Z,72.65
2024-05-09T04:35:55.975Z,72.58
2024-05-09T04:36:55.952Z,72.45
2024-05-09T04:37:56.010Z,72.45
2024-05-09T04:38:55.934Z,72.55
2024-05-09T04:39:55.938Z,72.45
2024-05-09T04:40:55.940Z,72.45
2024-05-09T04:41:55.888Z,72.34
2024-05-09T04:42:55.875Z,72.45
2024-05-09T04:43:55.922Z,72.65
2024-05-09T04:44:58.627Z,72.86
2024-05-09T04:45:55.852Z,72.65
2024-05-09T04:46:55.868Z,72.65
2024-05-09T04:47:55.999Z,72.65
2024-05-09T04:48:55.881Z,72.65
2024-05-09T04:49:55.842Z,72.75
2024-05-09T04:50:55.822Z,72.75
2024-05-09T04:51:55.778Z,72.75
2024-05-09T04:52:55.802Z,72.86
2024-05-09T04:53:55.777Z,72.65
2024-05-09T04:54:58.416Z,72.55
2024-05-09T04:55:55.795Z,72.65
2024-05-09T04:56:55.717Z,72.55
2024-05-09T04:57:55.712Z,72.34
2024-05-09T04:58:56.210Z,72.34
2024-05-09T04:59:55.678Z,72.34
2024-05-09T05:00:55.714Z,72.34
2024-05-09T05:01:55.767Z,72.34
2024-05-09T05:02:55.820Z,72.34
2024-05-09T05:03:56.251Z,72.21
2024-05-09T05:04:55.709Z,72.21
2024-05-09T05:05:55.853Z,72.11
2024-05-09T05:06:57.721Z,72.00
2024-05-09T05:07:55.638Z,71.91
2024-05-09T05:08:55.591Z,71.91
2024-05-09T05:09:55.577Z,71.91
2024-05-09T05:10:55.743Z,71.80
2024-05-09T05:11:55.795Z,71.70
2024-05-09T05:12:55.546Z,71.59
2024-05-09T05:13:55.610Z,71.59
2024-05-09T05:14:55.522Z,71.59
2024-05-09T05:15:56.249Z,71.80
2024-05-09T05:16:56.337Z,71.77
2024-05-09T05:17:55.715Z,71.56
2024-05-09T05:18:55.628Z,71.56
2024-05-09T05:19:55.579Z,71.56
2024-05-09T05:20:55.544Z,71.67
2024-05-09T05:21:55.433Z,71.67
2024-05-09T05:22:55.453Z,71.67
2024-05-09T05:23:55.439Z,71.56
2024-05-09T05:24:55.434Z,71.56
2024-05-09T05:25:56.435Z,71.46
2024-05-09T05:26:55.388Z,71.46
2024-05-09T05:27:55.388Z,71.36
2024-05-09T05:28:56.169Z,71.26
2024-05-09T05:29:55.353Z,71.12
2024-05-09T05:30:55.358Z,71.02
2024-05-09T05:31:56.419Z,70.92
2024-05-09T05:32:55.694Z,70.92
2024-05-09T05:33:55.361Z,70.72
2024-05-09T05:34:55.379Z,70.61
2024-05-09T05:35:55.279Z,70.72
2024-05-09T05:36:55.276Z,70.72
2024-05-09T05:37:55.317Z,70.57
2024-05-09T05:38:55.334Z,70.57
2024-05-09T05:39:55.235Z,70.68
2024-05-09T05:40:55.410Z,70.68
2024-05-09T05:41:55.221Z,70.57
2024-05-09T05:42:55.206Z,70.27
2024-05-09T05:43:55.220Z,70.07
2024-05-09T05:44:55.214Z,70.07
2024-05-09T05:45:55.187Z,70.07
2024-05-09T05:46:55.212Z,69.96
2024-05-09T05:47:55.436Z,69.86
2024-05-09T05:48:55.237Z,69.76
2024-05-09T05:49:55.148Z,69.96
2024-05-09T05:50:55.184Z,69.93
2024-05-09T05:51:55.103Z,69.93
2024-05-09T05:52:55.793Z,69.93
2024-05-09T05:53:55.078Z,69.83
2024-05-09T05:54:55.076Z,69.83
2024-05-09T05:55:55.168Z,69.83
2024-05-09T05:56:55.062Z,69.73
2024-05-09T05:57:55.045Z,69.53
2024-05-09T05:58:55.073Z,69.32
2024-05-09T05:59:55.025Z,69.22
2024-05-09T06:00:55.228Z,69.12
2024-05-09T06:01:55.084Z,69.22
2024-05-09T06:02:55.118Z,69.29
2024-05-09T06:03:56.363Z,69.19
2024-05-09T06:04:55.148Z,69.09
2024-05-09T06:05:54.988Z,68.88
2024-05-09T06:06:54.965Z,68.57
2024-05-09T06:07:54.980Z,68.57
2024-05-09T06:08:54.948Z,68.68
2024-05-09T06:09:54.922Z,68.78
2024-05-09T06:10:54.979Z,68.88
2024-05-09T06:11:54.960Z,68.88
2024-05-09T06:12:54.890Z,68.85
2024-05-09T06:13:54.911Z,68.75
2024-05-09T06:14:54.851Z,68.65
2024-05-09T06:15:54.850Z,68.54
2024-05-09T06:16:58.113Z,68.44
2024-05-09T06:17:55.043Z,68.44
2024-05-09T06:18:54.959Z,68.44
2024-05-09T06:19:54.930Z,68.31
2024-05-09T06:20:54.867Z,68.10
2024-05-09T06:21:54.801Z,67.90
2024-05-09T06:22:54.793Z,67.90
2024-05-09T06:23:54.763Z,68.01
2024-05-09T06:24:54.748Z,67.90
2024-05-09T06:25:55.397Z,67.87
2024-05-09T06:26:54.722Z,67.46
2024-05-09T06:27:54.706Z,67.46
2024-05-09T06:28:54.740Z,67.46
2024-05-09T06:29:54.729Z,67.26
2024-05-09T06:30:54.680Z,67.05
2024-05-09T06:31:57.193Z,66.65
2024-05-09T06:32:54.850Z,66.35
2024-05-09T06:33:54.797Z,66.24
2024-05-09T06:34:54.652Z,66.35
2024-05-09T06:35:54.635Z,66.21
2024-05-09T06:36:55.327Z,65.91
2024-05-09T06:37:54.613Z,65.70
2024-05-09T06:38:54.607Z,65.60
2024-05-09T06:39:54.579Z,65.60
2024-05-09T06:40:54.603Z,65.39
2024-05-09T06:41:54.559Z,64.89
2024-05-09T06:42:54.541Z,64.48
2024-05-09T06:43:54.598Z,64.58
2024-05-09T06:44:54.538Z,64.55
2024-05-09T06:45:54.504Z,64.76
2024-05-09T06:46:57.077Z,64.45
2024-05-09T06:47:54.664Z,63.94
2024-05-09T06:48:54.687Z,63.64
2024-05-09T06:49:54.758Z,63.43
2024-05-09T06:50:54.478Z,63.40
2024-05-09T06:51:54.450Z,63.30
2024-05-09T06:52:54.494Z,63.30
2024-05-09T06:53:54.428Z,63.40
2024-05-09T06:54:54.427Z,63.40
2024-05-09T06:55:54.435Z,63.00
2024-05-09T06:56:54.385Z,62.97
2024-05-09T06:57:54.380Z,62.87
2024-05-09T06:58:54.442Z,62.76
2024-05-09T06:59:54.383Z,62.87
2024-05-09T07:00:54.375Z,62.97
2024-05-09T07:01:54.353Z,63.07
2024-05-09T07:02:54.377Z,62.74
2024-05-09T07:03:54.417Z,62.43
2024-05-09T07:04:54.691Z,62.33
2024-05-09T07:05:55.378Z,62.33
2024-05-09T07:06:54.287Z,62.02
2024-05-09T07:07:54.342Z,61.82
2024-05-09T07:08:54.334Z,61.62
2024-05-09T07:09:54.275Z,61.39
2024-05-09T07:10:54.280Z,61.08
2024-05-09T07:11:54.284Z,61.08
2024-05-09T07:12:54.219Z,61.18
2024-05-09T07:13:54.263Z,61.39
2024-05-09T07:14:54.199Z,61.39
2024-05-09T07:15:54.223Z,61.08
2024-05-09T07:16:54.347Z,60.85
2024-05-09T07:17:54.385Z,60.55
2024-05-09T07:18:54.337Z,60.44
2024-05-09T07:19:54.229Z,60.04
2024-05-09T07:20:54.170Z,60.14
2024-05-09T07:21:54.110Z,60.04
2024-05-09T07:22:54.171Z,59.53
2024-05-09T07:23:54.127Z,59.70
2024-05-09T07:24:54.103Z,59.81
2024-05-09T07:25:54.201Z,59.30
2024-05-09T07:26:54.069Z,59.30
2024-05-09T07:27:54.076Z,59.20
2024-05-09T07:28:54.109Z,59.10
2024-05-09T07:29:54.028Z,58.29
2024-05-09T07:30:54.036Z,58.26
2024-05-09T07:31:54.045Z,58.47
2024-05-09T07:32:54.229Z,58.56
2024-05-09T07:33:54.940Z,58.76
2024-05-09T07:34:54.066Z,58.67
2024-05-09T07:35:53.993Z,58.36
2024-05-09T07:36:53.951Z,58.56
2024-05-09T07:37:54.023Z,58.54
2024-05-09T07:38:53.926Z,58.34
2024-05-09T07:39:53.924Z,57.73
2024-05-09T07:40:53.923Z,57.42
2024-05-09T07:41:53.902Z,57.62
2024-05-09T07:42:53.898Z,57.62
2024-05-09T07:43:53.985Z,57.73
2024-05-09T07:44:53.896Z,57.93
2024-05-09T07:45:56.033Z,58.03
2024-05-09T07:48:13.737Z,57.60
2024-05-09T07:51:32.663Z,57.60
2024-05-09T07:53:37.750Z,57.09
2024-05-09T07:53:51.963Z,56.89
2024-05-09T07:54:25.024Z,56.38
2024-05-09T07:55:24.882Z,56.38
2024-05-09T07:56:25.883Z,56.69
2024-05-09T07:57:24.738Z,56.99
2024-05-09T07:58:24.762Z,56.99
2024-05-09T07:59:24.664Z,57.09
2024-05-09T08:00:31.067Z,56.66
2024-05-09T08:01:24.805Z,56.36
2024-05-09T08:02:24.754Z,55.85
2024-05-09T08:03:24.743Z,55.75
2024-05-09T08:04:26.562Z,55.85
2024-05-09T08:05:24.693Z,55.75
2024-05-09T08:06:24.695Z,55.85
2024-05-09T08:07:24.621Z,55.93
2024-05-09T08:08:25.386Z,55.93
2024-05-09T08:09:24.544Z,55.82
2024-05-09T08:10:28.582Z,55.82
2024-05-09T08:11:24.634Z,55.62
2024-05-09T08:12:24.530Z,55.22
2024-05-09T08:13:24.546Z,55.02
2024-05-09T08:14:24.533Z,55.22
2024-05-09T08:15:24.486Z,54.84
2024-05-09T08:16:24.587Z,55.15
2024-05-09T08:17:24.504Z,55.04
2024-05-09T08:18:24.651Z,55.02
2024-05-09T08:19:24.523Z,54.91
2024-05-09T08:20:31.004Z,54.61
2024-05-09T08:21:24.428Z,54.61
2024-05-09T08:22:24.406Z,54.00
2024-05-09T08:23:24.406Z,54.11
2024-05-09T08:24:24.389Z,53.90
2024-05-09T08:25:24.418Z,54.11
2024-05-09T08:26:24.341Z,54.31
2024-05-09T08:27:24.336Z,53.98
2024-05-09T08:28:24.412Z,54.08
2024-05-09T08:29:24.314Z,54.18
2024-05-09T08:30:32.510Z,53.67
2024-05-09T08:31:24.402Z,53.17
2024-05-09T08:32:24.287Z,53.17
2024-05-09T08:33:24.374Z,53.27
2024-05-09T08:34:24.379Z,53.07
2024-05-09T08:35:24.317Z,52.64
2024-05-09T08:36:25.179Z,53.05
2024-05-09T08:37:27.839Z,53.25
2024-05-09T08:38:24.212Z,52.84
2024-05-09T08:39:24.215Z,52.84
2024-05-09T08:40:31.007Z,52.74
2024-05-09T08:41:24.202Z,52.44
2024-05-09T08:42:24.171Z,52.14
2024-05-09T08:43:24.193Z,51.63
2024-05-09T08:44:24.158Z,51.53
2024-05-09T08:45:24.136Z,51.83
2024-05-09T08:46:24.265Z,52.14
2024-05-09T08:47:24.207Z,52.51
2024-05-09T08:48:24.274Z,52.21
2024-05-09T08:49:24.210Z,51.61
2024-05-09T08:50:32.027Z,51.71
2024-05-09T08:51:24.087Z,51.91
2024-05-09T08:52:24.063Z,52.01
2024-05-09T08:53:24.063Z,52.11
2024-05-09T08:54:24.036Z,52.01
2024-05-09T08:55:24.035Z,52.01
2024-05-09T08:56:24.025Z,51.98
2024-05-09T08:57:24.907Z,51.48
2024-05-09T08:58:24.031Z,50.87
2024-05-09T08:59:23.980Z,50.67
2024-05-09T09:00:33.739Z,50.87
2024-05-09T09:01:24.014Z,49.76
2024-05-09T09:02:24.079Z,50.16
2024-05-09T09:03:23.978Z,50.07
2024-05-09T09:04:24.084Z,50.16
2024-05-09T09:05:24.030Z,50.27
2024-05-09T09:06:23.895Z,50.37
2024-05-09T09:07:23.936Z,50.67
2024-05-09T09:08:23.889Z,50.47
2024-05-09T09:09:23.874Z,50.07
2024-05-09T09:10:29.876Z,50.15
2024-05-09T09:11:23.892Z,50.24
2024-05-09T09:12:23.865Z,50.24
2024-05-09T09:13:23.853Z,50.04
2024-05-09T09:14:23.810Z,49.84
2024-05-09T09:15:23.885Z,49.64
2024-05-09T09:16:23.872Z,49.64
2024-05-09T09:17:23.852Z,50.04
2024-05-09T09:18:23.871Z,50.02
2024-05-09T09:19:24.034Z,49.72
2024-05-09T09:20:29.517Z,49.41
2024-05-09T09:21:23.766Z,49.41
2024-05-09T09:22:23.779Z,49.62
2024-05-09T09:23:23.740Z,49.72
2024-05-09T09:24:23.707Z,49.31
2024-05-09T09:25:25.377Z,49.52
2024-05-09T09:26:23.727Z,49.31
2024-05-09T09:27:23.678Z,49.01
2024-05-09T09:28:23.690Z,48.91
2024-05-09T09:29:23.647Z,46.69
2024-05-09T09:30:34.605Z,46.89
2024-05-09T09:31:23.684Z,47.19
2024-05-09T09:32:23.671Z,47.27
2024-05-09T09:33:23.685Z,46.57
2024-05-09T09:34:23.724Z,46.06
2024-05-09T09:35:23.649Z,45.36
2024-05-09T09:36:23.593Z,45.26
2024-05-09T09:37:23.572Z,45.16
2024-05-09T09:38:23.555Z,45.38
2024-05-09T09:39:23.572Z,45.07
2024-05-09T09:40:31.030Z,45.48
2024-05-09T09:41:23.527Z,45.48
2024-05-09T09:42:23.529Z,45.18
2024-05-09T09:43:23.547Z,45.26
2024-05-09T09:44:23.486Z,45.76
2024-05-09T09:45:23.477Z,45.56
2024-05-09T09:46:23.617Z,45.36
2024-05-09T09:47:23.510Z,45.76
2024-05-09T09:48:23.781Z,45.66
2024-05-09T09:49:23.455Z,44.85
2024-05-09T09:50:31.339Z,44.65
2024-05-09T09:51:23.403Z,45.36
2024-05-09T09:52:23.434Z,44.85
2024-05-09T09:53:23.431Z,44.93
2024-05-09T09:54:23.385Z,44.75
2024-05-09T09:55:23.516Z,44.75
2024-05-09T09:56:23.366Z,44.95
2024-05-09T09:57:23.346Z,44.45
2024-05-09T09:58:23.474Z,44.75
2024-05-09T09:59:23.363Z,44.55
2024-05-09T10:00:30.161Z,44.65
2024-05-09T10:01:23.361Z,44.75
2024-05-09T10:02:23.422Z,44.85
2024-05-09T10:03:23.356Z,45.06
2024-05-09T10:04:23.382Z,45.03
2024-05-09T10:05:23.459Z,45.14
2024-05-09T10:06:23.237Z,45.24
2024-05-09T10:07:23.293Z,45.03
2024-05-09T10:08:23.232Z,44.53
2024-05-09T10:09:23.259Z,44.53
2024-05-09T10:10:30.427Z,44.33
2024-05-09T10:11:23.226Z,44.23
2024-05-09T10:12:23.209Z,44.63
2024-05-09T10:13:23.260Z,44.71
2024-05-09T10:14:23.163Z,44.21
2024-05-09T10:15:23.151Z,43.91
2024-05-09T10:16:23.351Z,43.91
2024-05-09T10:17:23.155Z,43.71
2024-05-09T10:18:23.434Z,43.60
2024-05-09T10:19:23.174Z,43.91
2024-05-09T10:20:27.968Z,43.91
2024-05-09T10:21:23.215Z,44.21
2024-05-09T10:22:23.147Z,44.61
2024-05-09T10:23:23.081Z,44.61
2024-05-09T10:24:23.047Z,44.01
2024-05-09T10:25:23.264Z,42.88
2024-05-09T10:26:23.061Z,42.38
2024-05-09T10:27:23.023Z,42.27
2024-05-09T10:28:23.037Z,42.47
2024-05-09T10:29:23.140Z,42.98
2024-05-09T10:30:29.790Z,44.09
2024-05-09T10:31:23.000Z,44.59
2024-05-09T10:32:23.175Z,43.99
2024-05-09T10:33:23.208Z,43.88
2024-05-09T10:34:23.380Z,43.87
2024-05-09T10:35:23.852Z,43.08
2024-05-09T10:36:22.935Z,42.86
2024-05-09T10:37:23.138Z,43.18
2024-05-09T10:38:22.944Z,43.06
2024-05-09T10:39:22.938Z,42.76
2024-05-09T10:40:28.771Z,42.55
2024-05-09T10:41:22.978Z,42.05
2024-05-09T10:42:22.940Z,41.55
2024-05-09T10:43:23.043Z,42.05
2024-05-09T10:44:22.839Z,42.33
2024-05-09T10:45:22.829Z,43.14
2024-05-09T10:46:22.939Z,43.34
2024-05-09T10:47:23.473Z,43.34
2024-05-09T10:48:22.910Z,42.92
2024-05-09T10:49:22.941Z,42.72
2024-05-09T10:50:28.499Z,42.61
2024-05-09T10:51:22.763Z,42.72
2024-05-09T10:52:22.808Z,42.72
2024-05-09T10:53:22.717Z,42.61
2024-05-09T10:54:23.410Z,42.69
2024-05-09T10:55:22.888Z,42.90
2024-05-09T10:56:22.694Z,43.00
2024-05-09T10:57:22.694Z,42.49
2024-05-09T10:58:22.703Z,43.00
2024-05-09T10:59:22.657Z,42.68
2024-05-09T11:00:27.844Z,42.27
2024-05-09T11:01:22.806Z,42.27
2024-05-09T11:02:22.900Z,42.58
2024-05-09T11:03:22.650Z,42.66
2024-05-09T11:04:22.760Z,42.76
2024-05-09T11:05:23.594Z,42.25
2024-05-09T11:06:22.631Z,42.03
2024-05-09T11:07:22.808Z,41.83
2024-05-09T11:08:22.568Z,41.53
2024-05-09T11:09:22.560Z,41.33
2024-05-09T11:10:27.825Z,41.33
2024-05-09T11:11:22.599Z,40.81
2024-05-09T11:12:24.715Z,40.71
2024-05-09T11:13:22.585Z,41.01
2024-05-09T11:14:22.506Z,40.71
2024-05-09T11:15:23.368Z,40.31
2024-05-09T11:16:22.695Z,40.59
2024-05-09T11:17:22.572Z,40.09
2024-05-09T11:18:25.352Z,39.99
2024-05-09T11:19:22.561Z,39.89
2024-05-09T11:20:29.131Z,39.79
2024-05-09T11:21:22.423Z,39.97
2024-05-09T11:22:22.420Z,40.27
2024-05-09T11:23:22.409Z,40.17
2024-05-09T11:24:22.392Z,39.85
2024-05-09T11:25:22.429Z,39.75
2024-05-09T11:26:22.518Z,39.55
2024-05-09T11:27:22.351Z,39.63
2024-05-09T11:28:22.958Z,39.53
2024-05-09T11:29:22.333Z,39.91
2024-05-09T11:30:29.743Z,39.61
2024-05-09T11:31:22.570Z,39.39
2024-05-09T11:32:22.429Z,39.29
2024-05-09T11:33:22.299Z,39.28
2024-05-09T11:34:22.353Z,38.28
2024-05-09T11:35:22.267Z,37.96
2024-05-09T11:36:22.279Z,37.96
2024-05-09T11:37:22.284Z,37.64
2024-05-09T11:38:22.243Z,37.52
2024-05-09T11:39:22.243Z,37.23
2024-05-09T11:40:25.739Z,36.41
2024-05-09T11:41:22.208Z,35.41
2024-05-09T11:42:22.211Z,35.61
2024-05-09T11:43:22.292Z,35.99
2024-05-09T11:44:22.935Z,36.07
2024-05-09T11:45:22.221Z,35.88
2024-05-09T11:46:22.183Z,35.47
2024-05-09T11:47:22.243Z,35.16
2024-05-09T11:48:22.329Z,34.56
2024-05-09T11:49:25.358Z,34.64
2024-05-09T11:50:27.389Z,35.05
2024-05-09T11:51:22.118Z,35.13
2024-05-09T11:52:22.149Z,34.43
2024-05-09T11:53:22.098Z,34.53
2024-05-09T11:54:22.134Z,34.01
2024-05-09T11:55:27.207Z,33.52
2024-05-09T11:56:22.070Z,33.30
2024-05-09T11:57:22.029Z,33.40
2024-05-09T11:58:22.071Z,32.89
2024-05-09T11:59:22.015Z,32.87
2024-05-09T12:00:29.598Z,32.67
2024-05-09T12:01:23.134Z,32.06
2024-05-09T12:02:23.065Z,32.17
2024-05-09T12:03:22.016Z,31.75
2024-05-09T12:04:23.074Z,31.54
2024-05-09T12:05:22.048Z,30.36
2024-05-09T12:06:21.957Z,31.26
2024-05-09T12:07:21.941Z,31.65
2024-05-09T12:08:21.922Z,30.84
2024-05-09T12:09:21.907Z,30.84
2024-05-09T12:10:31.957Z,30.63
2024-05-09T12:11:22.955Z,30.71
2024-05-09T12:12:21.875Z,30.62
2024-05-09T12:13:21.926Z,29.83
2024-05-09T12:14:21.847Z,30.12
2024-05-09T12:15:21.835Z,30.52
2024-05-09T12:16:22.093Z,30.40
2024-05-09T12:17:21.937Z,29.61
2024-05-09T12:18:21.827Z,30.30
2024-05-09T12:19:21.866Z,29.99
2024-05-09T12:20:28.746Z,29.90
2024-05-09T12:21:22.448Z,29.68
2024-05-09T12:22:21.790Z,28.99
2024-05-09T12:23:21.750Z,29.09
2024-05-09T12:24:21.760Z,29.07
2024-05-09T12:25:21.785Z,28.97
2024-05-09T12:26:21.732Z,28.37
2024-05-09T12:27:21.711Z,28.35
2024-05-09T12:28:21.965Z,27.66
2024-05-09T12:29:21.682Z,27.07
2024-05-09T12:30:32.526Z,27.17
2024-05-09T12:31:21.710Z,27.35
2024-05-09T12:32:21.704Z,27.35
2024-05-09T12:33:21.844Z,27.35
2024-05-09T12:34:21.715Z,27.15
2024-05-09T12:35:21.657Z,27.35
2024-05-09T12:36:21.610Z,27.55
2024-05-09T12:37:21.645Z,28.24
2024-05-09T12:38:21.613Z,28.24
2024-05-09T12:39:21.583Z,28.34
2024-05-09T12:40:31.345Z,28.33
2024-05-09T12:41:21.588Z,28.42
2024-05-09T12:42:27.263Z,27.92
2024-05-09T12:43:21.592Z,28.02
2024-05-09T12:44:21.528Z,27.61
2024-05-09T12:45:21.531Z,27.51
2024-05-09T12:46:21.642Z,27.31
2024-05-09T12:47:21.593Z,27.50
2024-05-09T12:48:21.573Z,27.30
2024-05-09T12:49:21.713Z,27.30
2024-05-09T12:50:29.211Z,27.40
2024-05-09T12:51:22.454Z,27.09
2024-05-09T12:52:22.428Z,26.79
2024-05-09T12:53:21.450Z,26.58
2024-05-09T12:54:21.467Z,26.40
2024-05-09T12:55:22.030Z,26.29
2024-05-09T12:56:21.400Z,26.39